Accueil
METAR-TAF:

METAR-TAF

Aéroports :

Yeovilton, Angleterre

latitude: 51-00N, longitude: 002-38W, altitude: 23 m

Observation

Le bulletin a été fait il y a 50 minutes, à 16:50 UTC
Vent 14 kt de nord-ouest
Température 11°C
Humidité 54%
Pression 1030 hPa
Visibilité 10 km ou plus

METAR: EGDY 241650Z AUTO 31014KT 9999 NCD 11/02 Q1030

Heure: 17:40 (17:40 UTC)

Prévision

Le bulletin a été fait il y a 6 heures et 24 minutes, à 11:16 UTC
Prévision valable du 24 à 12 UTC au 24 à 18 UTC
Vent 10 kt de nord-ouest
Visibilité 10 km ou plus
Quelques nuages à une hauteur de 4000 ft

TAF: EGDY 241116Z 2412/2418 31010KT 9999 FEW040

Observations et prévisions météorologiques de plus de 4000 aéroports (messages METAR et TAF).

Les stations disponibles sont représentées par des disques jaunes et rouges sur la carte.

Passer la souris dessus pour voir le nom de la station.

Cliquer dessus pour voir les observations et prévisions météorologiques.

Pour changer de carte: cliquez sur les boutons verts avec une croix noire pour zoomer, sur le bouton vert avec un tiret pour effectuer un zoom arrière, ou sur les flèches vertes pour les cartes adjacentes.


METAR-TAF: